This is the latest recevied weather packets stored in our database for station/object KD9JJA. If no packets are shown the sender has not sent any weather packets the latest 10 day(s).
| Time | Temp. | Humidity | Pressure | Rain* | Wind** | Luminosity | Snow |
|---|---|---|---|---|---|---|---|
| 1776882415 | 23.89° C | 49% | 1018.3 hPa | 0 mm | - | 208 W/m² | - |
| 1776882111 | 23.33° C | 51% | 1018.4 hPa | 0 mm | - | 151 W/m² | - |
| 1776881807 | 23.89° C | 52% | 1018.5 hPa | 0 mm | - | 151 W/m² | - |
| 1776881503 | 23.89° C | 50% | 1018.3 hPa | 0 mm | - | 573 W/m² | - |
| 1776881201 | 23.89° C | 50% | 1018.8 hPa | 0 mm | - | 290 W/m² | - |
| 1776880898 | 23.33° C | 54% | 1018.4 hPa | 0 mm | - | 642 W/m² | - |
| 1776880593 | 23.33° C | 53% | 1018.6 hPa | 0 mm | - | 213 W/m² | - |
| 1776880289 | 23.33° C | 53% | 1018.6 hPa | 0 mm | - | 311 W/m² | - |
| 1776879984 | 23.33° C | 50% | 1018.4 hPa | 0 mm | - | 170 W/m² | - |
| 1776879681 | 23.33° C | 50% | 1018.6 hPa | 0 mm | - | 67 W/m² | - |
| 1776879377 | 23.33° C | 51% | 1018.8 hPa | 0 mm | - | 62 W/m² | - |
| 1776879074 | 23.33° C | 53% | 1018.9 hPa | 0 mm | - | 62 W/m² | - |
| 1776878771 | 23.33° C | 52% | 1018.8 hPa | 0 mm | - | 60 W/m² | - |
| 1776878467 | 22.78° C | 53% | 1019 hPa | 0 mm | - | 64 W/m² | - |
| 1776878163 | 22.78° C | 53% | 1018.9 hPa | 0 mm | - | 61 W/m² | - |
| 1776877859 | 22.78° C | 54% | 1019 hPa | 0 mm | - | 62 W/m² | - |
| 1776877556 | 22.78° C | 61% | 1019.1 hPa | 0 mm | - | 63 W/m² | - |
| 1776877254 | 22.78° C | 59% | 1019.1 hPa | 0 mm | - | 63 W/m² | - |
| 1776876950 | 22.78° C | 55% | 1018.9 hPa | 0 mm | - | 72 W/m² | - |
| 1776876648 | 22.78° C | 57% | 1019.2 hPa | 0 mm | - | 65 W/m² | - |
* Rain latest hour (hover to see other rain measurements)
** Current wind speed in m/s (hover to see current wind gust speed)